There are multiple Weather-warnings   Click here for more information


Meteo18 Weather Cam more information Meteo18 Weather Cam


warning for Thunderstorms more information blitzortung!


Rain radar more information rain snow radar


Visit our other weather sites:

Template documentation
and downloads

And another site



Weather Underground History page Text

Daily Summary for November 1, 2017 Units:  English    Metric   Both
« Previous Day
Next Day »
Daily Weekly Monthly Yearly Custom
  High: Low: Average:
Temperature: 59.2 °F 37.2 °F 48.2 °F
Dew Point: 44.4 °F 34.9 °F 40.6 °F
Humidity: 92 % 56 % 76 %
Wind Speed: 8 mph 0 mph 0.9 mph
Wind Gust: 10 mph - -
Wind:- - SSE
Pressure: 30.3 in 30.1 in -
Precipitation: 0 in    
Historical Graphs
 
 
Tabular Data for November 1, 2017
Time Temperature Dew Point Pressure Wind Wind Speed Wind Gust Humidity Rainfall Rate (Hourly)
00:02 39.7 °F 36.5 °F 30.3 in Calm   1 mph 88 % 0 in
00:12 39 °F 36.1 °F 30.3 in WNW 1 mph 1 mph 89 % 0 in
00:17 39 °F 36.3 °F 30.3 in Calm   1 mph 90 % 0 in
00:22 39 °F 36.3 °F 30.3 in Calm   1 mph 90 % 0 in
00:32 38.8 °F 36.1 °F 30.3 in Calm   1 mph 90 % 0 in
00:42 38.7 °F 36 °F 30.3 in Calm   1 mph 90 % 0 in
00:52 38.1 °F 35.4 °F 30.3 in Calm   1 mph 90 % 0 in
00:57 38.1 °F 35.8 °F 30.3 in Calm   1 mph 91 % 0 in
01:02 37.9 °F 35.6 °F 30.3 in WNW 1 mph 1 mph 91 % 0 in
01:12 38.1 °F 35.8 °F 30.3 in North 1 mph 1 mph 91 % 0 in
01:17 37.8 °F 35.4 °F 30.3 in Calm   2 mph 91 % 0 in
01:22 37.8 °F 35.4 °F 30.3 in North 1 mph 2 mph 91 % 0 in
01:27 37.4 °F 35.1 °F 30.3 in NNE 1 mph 2 mph 91 % 0 in
01:32 37.2 °F 34.9 °F 30.3 in North 1 mph 2 mph 91 % 0 in
01:37 37.6 °F 35.4 °F 30.3 in Calm   2 mph 92 % 0 in
01:42 37.8 °F 35.6 °F 30.3 in Calm   2 mph 92 % 0 in
01:47 37.9 °F 35.8 °F 30.3 in Calm   1 mph 92 % 0 in
01:52 38.1 °F 36 °F 30.3 in Calm   1 mph 92 % 0 in
01:57 38.1 °F 35.8 °F 30.3 in Calm   1 mph 91 % 0 in
02:02 38.1 °F 35.8 °F 30.3 in Calm   1 mph 91 % 0 in
02:07 38.1 °F 35.8 °F 30.3 in Calm   1 mph 91 % 0 in
02:17 37.8 °F 35.4 °F 30.3 in WNW 1 mph 1 mph 91 % 0 in
02:27 37.6 °F 35.2 °F 30.3 in WNW 1 mph 1 mph 91 % 0 in
02:32 37.8 °F 35.6 °F 30.3 in WNW 1 mph 2 mph 92 % 0 in
02:37 37.9 °F 35.8 °F 30.3 in Calm   2 mph 92 % 0 in
02:42 38.3 °F 36.1 °F 30.3 in Calm   2 mph 92 % 0 in
02:47 37.9 °F 35.6 °F 30.3 in Calm   2 mph 91 % 0 in
02:52 38.1 °F 36 °F 30.3 in Calm   1 mph 92 % 0 in
02:57 38.3 °F 36.1 °F 30.3 in Calm   1 mph 92 % 0 in
03:02 38.7 °F 36.5 °F 30.3 in Calm   1 mph 92 % 0 in
03:12 39 °F 36.7 °F 30.3 in NNE 2 mph 2 mph 91 % 0 in
03:17 39.2 °F 36.5 °F 30.3 in NNE 1 mph 3 mph 90 % 0 in
03:22 38.8 °F 36 °F 30.3 in North 1 mph 3 mph 89 % 0 in
03:27 38.3 °F 35.6 °F 30.3 in North 1 mph 3 mph 90 % 0 in
03:32 38.3 °F 36 °F 30.3 in Calm   2 mph 91 % 0 in
03:37 38.7 °F 36.3 °F 30.3 in Calm   2 mph 91 % 0 in
03:42 38.8 °F 36.5 °F 30.3 in NNW 1 mph 1 mph 91 % 0 in
03:47 39 °F 36.3 °F 30.3 in Calm   1 mph 90 % 0 in
03:52 39 °F 36.3 °F 30.3 in NNW 1 mph 1 mph 90 % 0 in
03:57 39.2 °F 36.5 °F 30.3 in NNW 1 mph 1 mph 90 % 0 in
04:02 38.1 °F 35.4 °F 30.3 in Calm   1 mph 90 % 0 in
08:12 39.9 °F 36.1 °F 30.3 in Calm   1 mph 86 % 0 in
08:17 40.5 °F 36.3 °F 30.2 in Calm   2 mph 85 % 0 in
08:22 40.6 °F 36.5 °F 30.3 in Calm   2 mph 85 % 0 in
08:27 41 °F 36.5 °F 30.3 in Calm   1 mph 84 % 0 in
08:32 41.4 °F 36.5 °F 30.3 in Calm   1 mph 83 % 0 in
08:37 41.7 °F 36.9 °F 30.3 in Calm   1 mph 83 % 0 in
08:42 42.1 °F 37 °F 30.3 in Calm   1 mph 82 % 0 in
08:47 42.3 °F 37.2 °F 30.3 in Calm   1 mph 82 % 0 in
08:52 42.4 °F 37 °F 30.3 in SE 1 mph 2 mph 81 % 0 in
08:57 42.8 °F 37 °F 30.3 in SE 1 mph 3 mph 80 % 0 in
09:02 43 °F 37.6 °F 30.3 in Calm   3 mph 81 % 0 in
09:12 43.3 °F 37.6 °F 30.3 in Calm   3 mph 80 % 0 in
09:17 43.5 °F 37.8 °F 30.3 in SE 2 mph 3 mph 80 % 0 in
09:22 43.5 °F 37.4 °F 30.3 in SSE 1 mph 3 mph 79 % 0 in
09:27 43.5 °F 37 °F 30.3 in Calm   5 mph 78 % 0 in
09:32 43.7 °F 37.2 °F 30.3 in ESE 1 mph 5 mph 78 % 0 in
09:37 44.2 °F 38.1 °F 30.3 in Calm   5 mph 79 % 0 in
09:42 44.4 °F 38.3 °F 30.3 in South 1 mph 4 mph 79 % 0 in
09:47 44.8 °F 37.9 °F 30.3 in East 1 mph 4 mph 77 % 0 in
09:57 44.8 °F 38.3 °F 30.3 in South 1 mph 4 mph 78 % 0 in
10:02 45.1 °F 38.7 °F 30.3 in SE 1 mph 4 mph 78 % 0 in
10:12 45.9 °F 39 °F 30.2 in SSW 2 mph 4 mph 77 % 0 in
10:17 45.9 °F 39.4 °F 30.3 in SE 1 mph 4 mph 78 % 0 in
10:22 46 °F 39.6 °F 30.2 in ESE 2 mph 5 mph 78 % 0 in
10:27 46 °F 39.2 °F 30.2 in SSW 3 mph 5 mph 77 % 0 in
10:32 46.4 °F 39.6 °F 30.2 in ESE 1 mph 5 mph 77 % 0 in
10:42 47.5 °F 39.6 °F 30.2 in ESE 2 mph 5 mph 74 % 0 in
10:47 47.7 °F 40.1 °F 30.2 in SSW 2 mph 5 mph 75 % 0 in
10:52 48 °F 40.1 °F 30.2 in Calm   5 mph 74 % 0 in
10:57 48.6 °F 39.9 °F 30.2 in ESE 1 mph 6 mph 72 % 0 in
11:02 48.7 °F 40.5 °F 30.2 in ESE 1 mph 6 mph 73 % 0 in
11:12 49.6 °F 40.6 °F 30.2 in East 1 mph 9 mph 71 % 0 in
11:17 50.2 °F 41.2 °F 30.2 in East 1 mph 9 mph 71 % 0 in
11:22 50.4 °F 41.4 °F 30.2 in ESE 1 mph 9 mph 71 % 0 in
11:27 50.9 °F 41.9 °F 30.2 in SE 1 mph 6 mph 71 % 0 in
11:32 51.4 °F 41.5 °F 30.2 in East 6 mph 6 mph 69 % 0 in
11:37 51.8 °F 41.9 °F 30.2 in SE 2 mph 7 mph 69 % 0 in
11:42 52.2 °F 41.5 °F 30.2 in SE 2 mph 8 mph 67 % 0 in
11:47 52.2 °F 41.2 °F 30.2 in ESE 4 mph 8 mph 66 % 0 in
11:52 52.2 °F 41.2 °F 30.2 in ESE 4 mph 8 mph 66 % 0 in
12:02 53.2 °F 41.7 °F 30.2 in ESE 6 mph 7 mph 65 % 0 in
12:12 53.8 °F 42.3 °F 30.2 in ENE 4 mph 9 mph 65 % 0 in
12:17 54.3 °F 42.4 °F 30.2 in Calm   9 mph 64 % 0 in
12:27 54.9 °F 42.1 °F 30.2 in South 2 mph 8 mph 62 % 0 in
12:32 55 °F 42.3 °F 30.2 in ESE 3 mph 8 mph 62 % 0 in
12:42 55.6 °F 42.3 °F 30.2 in SE 3 mph 8 mph 61 % 0 in
12:47 55.8 °F 43 °F 30.2 in SE 3 mph 8 mph 62 % 0 in
12:52 55.8 °F 42.4 °F 30.2 in Calm   8 mph 61 % 0 in
12:57 55.9 °F 42.3 °F 30.2 in East 4 mph 6 mph 60 % 0 in
13:02 56.5 °F 42.8 °F 30.2 in East 2 mph 6 mph 60 % 0 in
13:12 56.3 °F 43.5 °F 30.2 in ESE 8 mph 8 mph 62 % 0 in
13:17 56.1 °F 41.9 °F 30.2 in ESE 4 mph 9 mph 59 % 0 in
13:22 56.1 °F 42.4 °F 30.2 in SSE 3 mph 9 mph 60 % 0 in
13:27 56.5 °F 43.2 °F 30.2 in SE 2 mph 9 mph 61 % 0 in
13:32 56.8 °F 43.2 °F 30.2 in East 2 mph 8 mph 60 % 0 in
13:37 57 °F 42.8 °F 30.2 in ESE 2 mph 7 mph 59 % 0 in
13:42 57.2 °F 43.5 °F 30.2 in SSE 2 mph 7 mph 60 % 0 in
13:47 57.2 °F 42.6 °F 30.2 in SE 4 mph 7 mph 58 % 0 in
13:52 57.7 °F 43.5 °F 30.2 in SSE 3 mph 8 mph 59 % 0 in
13:57 58.1 °F 43.9 °F 30.2 in Calm   8 mph 59 % 0 in
14:02 58.5 °F 43.7 °F 30.2 in ESE 2 mph 8 mph 58 % 0 in
14:12 58.1 °F 43.3 °F 30.2 in SSE 2 mph 7 mph 58 % 0 in
14:17 58.1 °F 43.3 °F 30.2 in SSE 2 mph 7 mph 58 % 0 in
14:22 58.3 °F 43.2 °F 30.1 in SE 2 mph 10 mph 57 % 0 in
14:27 58.6 °F 44.4 °F 30.2 in ESE 5 mph 10 mph 59 % 0 in
14:32 58.8 °F 43.7 °F 30.1 in SW 6 mph 10 mph 57 % 0 in
14:37 59.2 °F 43.5 °F 30.1 in SSE 4 mph 8 mph 56 % 0 in
14:42 58.8 °F 43.7 °F 30.1 in Calm   8 mph 57 % 0 in
14:47 58.8 °F 43.7 °F 30.1 in ESE 1 mph 8 mph 57 % 0 in
14:52 58.6 °F 43 °F 30.1 in SSE 1 mph 7 mph 56 % 0 in
14:57 58.6 °F 43.5 °F 30.1 in SSW 3 mph 6 mph 57 % 0 in
15:02 58.6 °F 43.5 °F 30.1 in WNW 1 mph 6 mph 57 % 0 in
15:12 58.6 °F 43.9 °F 30.1 in Calm   6 mph 58 % 0 in
15:17 58.8 °F 43.7 °F 30.1 in Calm   5 mph 57 % 0 in
15:22 59 °F 43.7 °F 30.1 in SSE 1 mph 5 mph 57 % 0 in
15:27 58.8 °F 43.2 °F 30.1 in South 1 mph 4 mph 56 % 0 in
15:32 58.8 °F 43.7 °F 30.1 in ESE 1 mph 5 mph 57 % 0 in
15:37 58.6 °F 43.9 °F 30.1 in SSW 3 mph 5 mph 58 % 0 in
15:42 58.5 °F 43.7 °F 30.1 in SSE 1 mph 5 mph 58 % 0 in
15:47 58.3 °F 43.5 °F 30.1 in South 1 mph 5 mph 58 % 0 in
15:52 58.3 °F 44.1 °F 30.1 in Calm   5 mph 59 % 0 in
15:57 58.1 °F 43.9 °F 30.1 in SSW 2 mph 4 mph 59 % 0 in
16:02 57.9 °F 43.7 °F 30.1 in SSW 5 mph 5 mph 59 % 0 in
16:12 57.7 °F 43.9 °F 30.1 in Calm   5 mph 60 % 0 in
16:17 57.6 °F 43.7 °F 30.1 in SSW 2 mph 5 mph 60 % 0 in
16:22 57.2 °F 43.5 °F 30.1 in SSW 1 mph 4 mph 60 % 0 in
16:27 56.8 °F 43.9 °F 30.1 in SSW 1 mph 5 mph 62 % 0 in
16:32 56.7 °F 43.3 °F 30.1 in SSE 3 mph 5 mph 61 % 0 in
16:37 56.5 °F 43.7 °F 30.1 in South 2 mph 5 mph 62 % 0 in
16:42 56.1 °F 43.7 °F 30.1 in Calm   4 mph 63 % 0 in
16:47 55.8 °F 43.7 °F 30.1 in SSE 2 mph 4 mph 64 % 0 in
16:52 55.2 °F 43.3 °F 30.1 in SSE 2 mph 5 mph 64 % 0 in
16:57 55 °F 43.5 °F 30.1 in Calm   5 mph 65 % 0 in
17:02 54.7 °F 43.5 °F 30.1 in SSE 3 mph 5 mph 66 % 0 in
17:07 54.3 °F 43.2 °F 30.1 in SSE 1 mph 4 mph 66 % 0 in
17:12 54 °F 43.3 °F 30.1 in SSE 1 mph 4 mph 67 % 0 in
17:17 53.8 °F 43.5 °F 30.1 in Calm   4 mph 68 % 0 in
17:22 53.4 °F 43.2 °F 30.1 in Calm   2 mph 68 % 0 in
17:32 52.5 °F 42.6 °F 30.1 in SW 2 mph 2 mph 69 % 0 in
17:42 52.2 °F 43 °F 30.1 in SW 1 mph 3 mph 71 % 0 in
17:47 52.2 °F 43 °F 30.1 in SSW 1 mph 3 mph 71 % 0 in
17:52 51.8 °F 42.6 °F 30.1 in SSW 1 mph 3 mph 71 % 0 in
17:57 51.6 °F 43 °F 30.1 in SSW 1 mph 3 mph 72 % 0 in
18:02 51.6 °F 43 °F 30.1 in Calm   2 mph 72 % 0 in
18:12 51.6 °F 43.3 °F 30.1 in Calm   2 mph 73 % 0 in
18:17 51.6 °F 43.3 °F 30.1 in SW 1 mph 1 mph 73 % 0 in
18:27 51.6 °F 43.3 °F 30.1 in Calm   2 mph 73 % 0 in
18:32 51.8 °F 43.3 °F 30.1 in Calm   2 mph 73 % 0 in
18:42 51.1 °F 42.8 °F 30.1 in Calm   1 mph 73 % 0 in
18:47 50.5 °F 43.3 °F 30.1 in Calm   1 mph 76 % 0 in
18:52 50.5 °F 43 °F 30.1 in Calm   1 mph 75 % 0 in
18:57 50.5 °F 43 °F 30.1 in Calm   1 mph 75 % 0 in
19:02 50.5 °F 43.3 °F 30.1 in Calm   1 mph 76 % 0 in
19:12 50.2 °F 43 °F 30.1 in Calm   1 mph 76 % 0 in
19:17 49.8 °F 43 °F 30.1 in Calm     77 % 0 in
19:22 49.8 °F 43 °F 30.1 in Calm     77 % 0 in
19:27 49.8 °F 43 °F 30.1 in Calm     77 % 0 in
19:32 49.6 °F 42.8 °F 30.1 in Calm     77 % 0 in
19:42 48.9 °F 42.4 °F 30.1 in Calm     78 % 0 in
19:47 48.6 °F 42.6 °F 30.1 in Calm     80 % 0 in
19:52 48.7 °F 43.2 °F 30.1 in Calm     81 % 0 in
19:57 49.1 °F 43.2 °F 30.1 in Calm     80 % 0 in
20:02 49.1 °F 43.2 °F 30.1 in Calm     80 % 0 in
20:12 48.6 °F 43 °F 30.1 in Calm   2 mph 81 % 0 in
20:17 48.2 °F 43 °F 30.1 in Calm   2 mph 82 % 0 in
20:22 48.6 °F 43.3 °F 30.1 in Calm   2 mph 82 % 0 in
20:32 48.4 °F 43.2 °F 30.1 in Calm   1 mph 82 % 0 in
20:37 47.5 °F 41.9 °F 30.1 in Calm   1 mph 81 % 0 in
20:47 47.5 °F 43.2 °F 30.1 in SW 1 mph 2 mph 85 % 0 in
20:52 48 °F 42.8 °F 30.1 in SSW 1 mph 2 mph 82 % 0 in
20:57 48 °F 42.8 °F 30.1 in SSW 1 mph 4 mph 82 % 0 in
21:02 47.8 °F 42.6 °F 30.1 in SSW 1 mph 4 mph 82 % 0 in
21:12 48 °F 43.2 °F 30.1 in Calm   3 mph 83 % 0 in
21:17 48 °F 43.2 °F 30.1 in Calm   2 mph 83 % 0 in
21:22 47.8 °F 42.6 °F 30.1 in Calm   1 mph 82 % 0 in
21:27 47.7 °F 42.8 °F 30.1 in Calm   1 mph 83 % 0 in
21:37 47.1 °F 42.3 °F 30.1 in Calm     83 % 0 in
21:42 47.1 °F 42.6 °F 30.1 in Calm   2 mph 84 % 0 in
21:47 46.9 °F 42.4 °F 30.1 in Calm   2 mph 84 % 0 in
21:52 46.8 °F 42.4 °F 30.1 in Calm   2 mph 85 % 0 in
21:57 46.6 °F 42.3 °F 30.1 in Calm     85 % 0 in
22:02 46.2 °F 42.3 °F 30.1 in Calm     86 % 0 in
22:07 46 °F 42.1 °F 30.1 in Calm     86 % 0 in
22:17 45.9 °F 42.3 °F 30.1 in Calm     87 % 0 in
22:22 45.9 °F 42.3 °F 30.1 in Calm     87 % 0 in
22:27 45.9 °F 42.3 °F 30.1 in Calm   1 mph 87 % 0 in
22:32 46 °F 42.4 °F 30.1 in Calm   1 mph 87 % 0 in
22:42 45.9 °F 42.3 °F 30.1 in Calm   1 mph 87 % 0 in
22:47 45.9 °F 42.3 °F 30.1 in Calm   1 mph 87 % 0 in
22:52 45.9 °F 42.3 °F 30.1 in Calm   1 mph 87 % 0 in
22:57 45.9 °F 42.3 °F 30.1 in Calm   1 mph 87 % 0 in
23:02 45.9 °F 42.3 °F 30.1 in Calm   1 mph 87 % 0 in
23:07 45.7 °F 42.1 °F 30.1 in Calm     87 % 0 in
23:12 45.5 °F 41.9 °F 30.1 in Calm     87 % 0 in
23:22 45.3 °F 41.9 °F 30.1 in Calm     88 % 0 in
23:27 45.3 °F 41.9 °F 30.1 in Calm     88 % 0 in
23:37 45 °F 41.5 °F 30.1 in Calm     88 % 0 in
23:42 45 °F 41.9 °F 30.1 in Calm     89 % 0 in
23:47 44.8 °F 42.1 °F 30.1 in Calm     90 % 0 in
23:52 45 °F 41.9 °F 30.1 in Calm   1 mph 89 % 0 in
23:57 45 °F 42.3 °F 30.1 in Calm   1 mph 90 % 0 in
Meteo18
Compliments of Weather Underground - 4 mb

Script developed by  Jim McMurry - jmcmurry@mwt.net Adapted for the template by  Wim van der Kuil - Leuven-Template.eu

You find our weather info also at:

European Weather Network

Weather Underground

Equipment we use:

Weather-station
Davis Vue

Weather-program
Meteohub

Weather-server
Raspberry PI 2 B+

Provider
1 and 1

Davis Vue

Meteohub

Raspberry PI 2 B+

1 and 1